createdAt,value
2023-03-01T00:02:03.240Z,16.50
2023-03-01T00:04:29.950Z,16.40
2023-03-01T00:06:56.583Z,15.23
2023-03-01T00:09:23.756Z,15.43
2023-03-01T00:11:50.429Z,13.53
2023-03-01T00:14:20.028Z,14.67
2023-03-01T00:16:46.817Z,13.77
2023-03-01T00:19:15.558Z,17.20
2023-03-01T00:21:42.534Z,15.07
2023-03-01T00:24:09.616Z,13.63
2023-03-01T00:26:36.306Z,14.17
2023-03-01T00:29:02.920Z,14.23
2023-03-01T00:31:30.518Z,14.70
2023-03-01T00:33:58.813Z,14.37
2023-03-01T00:36:33.943Z,15.27
2023-03-01T00:39:00.742Z,13.40
2023-03-01T00:41:27.898Z,14.63
2023-03-01T00:43:54.824Z,17.17
2023-03-01T00:46:23.567Z,16.83
2023-03-01T00:48:50.289Z,14.57
2023-03-01T00:51:21.680Z,16.20
2023-03-01T00:53:51.466Z,21.47
2023-03-01T00:56:18.326Z,20.63
2023-03-01T00:58:45.189Z,18.23
2023-03-01T01:01:19.863Z,18.23
2023-03-01T01:03:46.565Z,18.07
2023-03-01T01:06:17.993Z,19.63
2023-03-01T01:08:44.722Z,19.43
2023-03-01T01:11:12.586Z,19.00
2023-03-01T01:13:40.232Z,20.97
2023-03-01T01:16:08.278Z,22.00
2023-03-01T01:18:35.040Z,17.10
2023-03-01T01:21:06.146Z,16.80
2023-03-01T01:23:32.808Z,16.40
2023-03-01T01:26:04.496Z,17.47
2023-03-01T01:28:31.131Z,19.50
2023-03-01T01:30:57.828Z,14.40
2023-03-01T01:33:25.003Z,20.80
2023-03-01T01:35:51.671Z,17.13
2023-03-01T01:38:18.320Z,18.77
2023-03-01T01:40:47.659Z,20.00
2023-03-01T01:43:25.325Z,19.87
2023-03-01T01:45:52.299Z,18.57
2023-03-01T01:48:23.598Z,19.70
2023-03-01T01:50:53.839Z,20.17
2023-03-01T01:53:20.881Z,15.23
2023-03-01T01:55:49.979Z,17.30
2023-03-01T01:58:18.410Z,16.17
2023-03-01T02:00:45.191Z,17.20
2023-03-01T02:03:13.957Z,15.53
2023-03-01T02:05:59.716Z,19.63
2023-03-01T02:08:28.151Z,18.23
2023-03-01T02:10:57.117Z,16.80
2023-03-01T02:13:24.329Z,18.53
2023-03-01T02:15:51.067Z,17.00
2023-03-01T02:18:19.393Z,15.70
2023-03-01T02:20:59.791Z,15.70
2023-03-01T02:23:26.844Z,18.27
2023-03-01T02:26:10.149Z,17.40
2023-03-01T02:28:37.458Z,18.47
2023-03-01T02:31:24.843Z,17.73
2023-03-01T02:33:52.231Z,15.30
2023-03-01T02:36:20.942Z,22.10
2023-03-01T02:38:48.860Z,15.73
2023-03-01T02:41:17.263Z,14.87
2023-03-01T02:43:44.340Z,15.47
2023-03-01T02:46:16.126Z,18.70
2023-03-01T02:48:44.064Z,18.83
2023-03-01T02:51:30.127Z,18.30
2023-03-01T02:54:15.254Z,16.53
2023-03-01T02:56:42.645Z,18.53
2023-03-01T02:59:10.220Z,19.60
2023-03-01T03:01:40.254Z,20.37
2023-03-01T03:04:10.981Z,17.23
2023-03-01T03:06:38.525Z,21.17
2023-03-01T03:09:05.769Z,23.73
2023-03-01T03:11:33.555Z,18.73
2023-03-01T03:14:00.994Z,21.70
2023-03-01T03:16:27.891Z,25.70
2023-03-01T03:18:55.957Z,25.13
2023-03-01T03:21:22.596Z,21.80
2023-03-01T03:23:49.775Z,21.90
2023-03-01T03:26:16.444Z,19.60
2023-03-01T03:28:43.186Z,21.17
2023-03-01T03:31:09.880Z,24.40
2023-03-01T03:33:36.612Z,22.20
2023-03-01T03:36:03.483Z,21.50
2023-03-01T03:38:30.527Z,19.97
2023-03-01T03:41:05.336Z,29.57
2023-03-01T03:43:33.194Z,20.77
2023-03-01T03:46:01.031Z,19.43
2023-03-01T03:48:28.110Z,22.03
2023-03-01T03:50:55.911Z,20.40
2023-03-01T03:53:23.900Z,20.17
2023-03-01T03:55:50.591Z,21.13
2023-03-01T03:58:20.710Z,20.30
2023-03-01T04:00:48.556Z,20.40
2023-03-01T04:03:16.677Z,23.13
2023-03-01T04:05:43.516Z,23.87
2023-03-01T04:08:10.214Z,24.67
2023-03-01T04:10:38.587Z,23.77
2023-03-01T04:13:06.125Z,21.27
2023-03-01T04:15:33.850Z,23.83
2023-03-01T04:18:00.786Z,22.53
2023-03-01T04:20:29.495Z,24.47
2023-03-01T04:23:11.629Z,21.77
2023-03-01T04:25:40.175Z,26.00
2023-03-01T04:28:07.014Z,23.00
2023-03-01T04:30:36.745Z,22.63
2023-03-01T04:33:04.592Z,25.63
2023-03-01T04:35:32.010Z,24.03
2023-03-01T04:37:58.771Z,24.60
2023-03-01T04:40:25.673Z,22.67
2023-03-01T04:42:52.395Z,23.27
2023-03-01T04:45:19.082Z,24.17
2023-03-01T04:47:47.242Z,28.37
2023-03-01T04:50:16.312Z,25.00
2023-03-01T04:52:43.543Z,23.30
2023-03-01T04:55:10.718Z,26.10
2023-03-01T04:57:37.401Z,28.87
2023-03-01T05:00:21.005Z,28.17
2023-03-01T05:02:55.246Z,27.27
2023-03-01T05:05:26.729Z,23.63
2023-03-01T05:08:00.701Z,22.57
2023-03-01T05:10:30.117Z,25.07
2023-03-01T05:12:58.494Z,23.93
2023-03-01T05:15:26.627Z,23.83
2023-03-01T05:17:55.320Z,27.30
2023-03-01T05:20:25.465Z,26.37
2023-03-01T05:22:56.139Z,25.57
2023-03-01T05:25:22.817Z,26.27
2023-03-01T05:27:49.707Z,27.07
2023-03-01T05:30:16.548Z,25.23
2023-03-01T05:32:47.523Z,26.13
2023-03-01T05:35:15.059Z,25.83
2023-03-01T05:37:45.340Z,27.00
2023-03-01T05:40:16.732Z,22.87
2023-03-01T05:42:44.244Z,28.10
2023-03-01T05:45:11.299Z,26.40
2023-03-01T05:47:37.975Z,24.97
2023-03-01T05:50:04.797Z,25.70
2023-03-01T05:52:31.473Z,25.97
2023-03-01T05:54:58.182Z,25.57
2023-03-01T05:57:24.854Z,29.37
2023-03-01T05:59:51.592Z,24.53
2023-03-01T06:02:18.294Z,25.13
2023-03-01T06:04:45.070Z,23.80
2023-03-01T06:07:12.299Z,25.03
2023-03-01T06:09:39.375Z,25.47
2023-03-01T06:12:06.127Z,25.87
2023-03-01T06:14:32.994Z,24.13
2023-03-01T06:17:00.407Z,28.83
2023-03-01T06:19:27.166Z,27.37
2023-03-01T06:21:53.876Z,25.97
2023-03-01T06:24:20.670Z,27.30
2023-03-01T06:26:47.389Z,27.17
2023-03-01T06:29:15.761Z,25.90
2023-03-01T06:31:42.574Z,23.57
2023-03-01T06:34:09.260Z,28.93
2023-03-01T06:36:36.112Z,47.60
2023-03-01T06:39:02.857Z,32.00
2023-03-01T06:41:29.716Z,32.83
2023-03-01T06:43:56.491Z,27.83
2023-03-01T06:46:23.324Z,30.07
2023-03-01T06:48:53.298Z,29.13
2023-03-01T06:51:20.157Z,30.50
2023-03-01T06:53:47.278Z,30.17
2023-03-01T06:56:14.033Z,26.30
2023-03-01T06:58:40.742Z,33.60
2023-03-01T07:01:10.769Z,31.93
2023-03-01T07:03:37.746Z,29.17
2023-03-01T07:06:04.637Z,28.73
2023-03-01T07:08:31.476Z,29.90
2023-03-01T07:11:00.038Z,31.23
2023-03-01T07:13:26.867Z,30.87
2023-03-01T07:15:53.635Z,32.87
2023-03-01T07:18:20.386Z,28.33
2023-03-01T07:20:47.048Z,28.73
2023-03-01T07:23:13.941Z,33.37
2023-03-01T07:25:40.473Z,30.67
2023-03-01T07:28:07.093Z,29.87
2023-03-01T07:30:34.017Z,33.30
2023-03-01T07:33:01.051Z,28.70
2023-03-01T07:35:28.412Z,30.53
2023-03-01T07:37:55.021Z,38.97
2023-03-01T07:40:21.579Z,33.70
2023-03-01T07:42:48.216Z,34.20
2023-03-01T07:45:14.887Z,33.20
2023-03-01T07:47:41.480Z,30.73
2023-03-01T07:50:08.414Z,28.83
2023-03-01T07:52:35.036Z,21.80
2023-03-01T07:55:01.823Z,23.63
2023-03-01T07:57:28.354Z,20.10
2023-03-01T07:59:54.993Z,18.40
2023-03-01T08:02:21.633Z,17.80
2023-03-01T08:04:48.173Z,18.30
2023-03-01T08:07:14.740Z,17.43
2023-03-01T08:09:41.928Z,17.13
2023-03-01T08:12:08.547Z,18.53
2023-03-01T08:14:35.237Z,18.33
2023-03-01T08:17:03.995Z,17.97
2023-03-01T08:19:30.685Z,21.90
2023-03-01T08:21:59.234Z,21.10
2023-03-01T08:24:26.090Z,20.00
2023-03-01T08:26:52.721Z,21.17
2023-03-01T08:29:19.285Z,19.77
2023-03-01T08:31:46.123Z,25.10
2023-03-01T08:34:14.166Z,23.40
2023-03-01T08:36:41.941Z,20.07
2023-03-01T08:39:09.625Z,22.90
2023-03-01T08:41:36.545Z,21.80
2023-03-01T08:44:03.404Z,21.50
2023-03-01T08:46:31.886Z,27.23
2023-03-01T08:48:58.783Z,20.73
2023-03-01T08:51:26.292Z,22.90
2023-03-01T08:53:52.942Z,22.07
2023-03-01T08:56:20.486Z,20.53
2023-03-01T08:58:47.843Z,18.90
2023-03-01T09:01:16.017Z,19.97
2023-03-01T09:03:42.684Z,22.10
2023-03-01T09:06:09.789Z,18.27
2023-03-01T09:08:36.876Z,14.00
2023-03-01T09:11:04.617Z,20.20
2023-03-01T09:13:32.261Z,18.47
2023-03-01T09:15:59.267Z,23.63
2023-03-01T09:18:25.867Z,17.40
2023-03-01T09:20:52.523Z,20.13
2023-03-01T09:23:19.084Z,18.27
2023-03-01T09:25:45.719Z,18.50
2023-03-01T09:28:27.620Z,18.13
2023-03-01T09:30:58.714Z,16.33
2023-03-01T09:33:25.536Z,20.90
2023-03-01T09:35:57.144Z,15.20
2023-03-01T09:38:25.961Z,18.60
2023-03-01T09:40:53.854Z,15.43
2023-03-01T09:43:26.605Z,17.90
2023-03-01T09:45:54.900Z,21.07
2023-03-01T09:48:24.887Z,14.23
2023-03-01T09:50:52.269Z,13.27
2023-03-01T09:53:20.226Z,13.63
2023-03-01T09:55:55.710Z,16.10
2023-03-01T09:58:28.492Z,18.30
2023-03-01T10:00:57.307Z,15.73
2023-03-01T10:03:29.052Z,15.23
2023-03-01T10:06:00.782Z,16.07
2023-03-01T10:08:30.550Z,17.00
2023-03-01T10:10:57.492Z,15.80
2023-03-01T10:13:43.363Z,17.73
2023-03-01T10:16:15.324Z,12.90
2023-03-01T10:18:42.459Z,17.53
2023-03-01T10:21:09.147Z,14.40
2023-03-01T10:23:36.948Z,13.47
2023-03-01T10:26:24.334Z,11.43
2023-03-01T10:28:50.932Z,14.63
2023-03-01T10:31:21.356Z,14.40
2023-03-01T10:33:52.506Z,17.73
2023-03-01T10:36:19.182Z,14.27
2023-03-01T10:38:51.114Z,9.93
2023-03-01T10:41:18.025Z,13.53
2023-03-01T10:43:52.028Z,14.20
2023-03-01T10:46:35.365Z,17.13
2023-03-01T10:49:14.455Z,11.77
2023-03-01T10:51:42.010Z,16.03
2023-03-01T10:54:23.054Z,13.83
2023-03-01T10:56:57.193Z,11.87
2023-03-01T10:59:27.650Z,11.30
2023-03-01T11:02:24.103Z,14.00
2023-03-01T11:04:58.130Z,11.93
2023-03-01T11:07:25.203Z,13.47
2023-03-01T11:09:51.837Z,12.73
2023-03-01T11:12:18.729Z,15.17
2023-03-01T11:14:53.900Z,13.07
2023-03-01T11:17:26.938Z,15.60
2023-03-01T11:20:24.176Z,12.70
2023-03-01T11:22:53.601Z,13.07
2023-03-01T11:25:26.103Z,14.33
2023-03-01T11:27:53.012Z,12.83
2023-03-01T11:30:30.959Z,16.70
2023-03-01T11:33:12.394Z,15.27
2023-03-01T11:35:44.300Z,13.10
2023-03-01T11:38:17.804Z,13.57
2023-03-01T11:40:47.553Z,14.57
2023-03-01T11:43:35.189Z,12.43
2023-03-01T11:46:20.748Z,16.73
2023-03-01T11:49:12.083Z,13.77
2023-03-01T11:51:44.645Z,15.33
2023-03-01T11:54:25.177Z,13.90
2023-03-01T11:56:53.495Z,13.27
2023-03-01T11:59:39.040Z,14.97
2023-03-01T12:02:05.814Z,16.33
2023-03-01T12:04:51.344Z,15.07
2023-03-01T12:07:31.076Z,13.57
2023-03-01T12:10:16.565Z,11.87
2023-03-01T12:13:00.697Z,12.20
2023-03-01T12:15:35.307Z,16.03
2023-03-01T12:18:20.265Z,17.13
2023-03-01T12:20:46.842Z,14.20
2023-03-01T12:23:23.614Z,15.00
2023-03-01T12:25:53.324Z,11.63
2023-03-01T12:28:33.838Z,12.83
2023-03-01T12:31:13.122Z,13.60
2023-03-01T12:33:46.185Z,15.37
2023-03-01T12:36:24.149Z,14.23
2023-03-01T12:38:57.366Z,14.53
2023-03-01T12:41:33.196Z,11.53
2023-03-01T12:44:00.048Z,13.97
2023-03-01T12:46:26.787Z,12.47
2023-03-01T12:49:00.578Z,12.60
2023-03-01T12:51:29.731Z,11.67
2023-03-01T12:53:58.086Z,12.43
2023-03-01T12:56:26.246Z,14.07
2023-03-01T12:58:59.849Z,12.63
2023-03-01T13:01:29.895Z,11.30
2023-03-01T13:04:14.003Z,10.97
2023-03-01T13:06:59.581Z,12.50
2023-03-01T13:09:35.512Z,12.10
2023-03-01T13:12:06.051Z,10.77
2023-03-01T13:14:36.673Z,11.03
2023-03-01T13:17:03.513Z,12.87
2023-03-01T13:19:31.122Z,14.13
2023-03-01T13:21:57.721Z,10.53
2023-03-01T13:24:39.704Z,8.20
2023-03-01T13:27:09.676Z,11.17
2023-03-01T13:29:45.994Z,11.97
2023-03-01T13:32:34.530Z,14.73
2023-03-01T13:35:20.637Z,11.43
2023-03-01T13:37:47.921Z,12.43
2023-03-01T13:40:20.699Z,10.87
2023-03-01T13:43:04.140Z,11.73
2023-03-01T13:45:40.069Z,8.30
2023-03-01T13:48:18.257Z,13.77
2023-03-01T13:50:48.904Z,10.23
2023-03-01T13:53:18.390Z,10.83
2023-03-01T13:55:48.144Z,11.20
2023-03-01T13:58:20.881Z,11.23
2023-03-01T14:00:48.001Z,9.23
2023-03-01T14:03:19.672Z,12.53
2023-03-01T14:06:11.315Z,13.67
2023-03-01T14:08:42.139Z,15.57
2023-03-01T14:11:25.249Z,13.90
2023-03-01T14:14:10.916Z,10.57
2023-03-01T14:16:37.577Z,10.93
2023-03-01T14:19:30.995Z,14.30
2023-03-01T14:22:04.106Z,10.93
2023-03-01T14:24:33.905Z,9.90
2023-03-01T14:27:02.284Z,12.37
2023-03-01T14:29:35.217Z,10.80
2023-03-01T14:32:12.577Z,9.23
2023-03-01T14:34:43.677Z,10.87
2023-03-01T14:37:27.279Z,9.13
2023-03-01T14:39:54.697Z,9.20
2023-03-01T14:42:23.421Z,11.50
2023-03-01T14:44:51.625Z,10.80
2023-03-01T14:47:41.952Z,10.80
2023-03-01T14:50:22.513Z,11.30
2023-03-01T14:52:51.721Z,11.13
2023-03-01T14:55:23.378Z,8.53
2023-03-01T14:57:51.388Z,9.77
2023-03-01T15:00:22.793Z,8.30
2023-03-01T15:02:51.029Z,9.03
2023-03-01T15:05:26.578Z,11.80
2023-03-01T15:07:53.308Z,9.60
2023-03-01T15:10:24.742Z,9.30
2023-03-01T15:12:53.939Z,10.23
2023-03-01T15:15:31.283Z,7.53
2023-03-01T15:17:59.293Z,9.57
2023-03-01T15:20:28.507Z,9.90
2023-03-01T15:22:55.832Z,9.33
2023-03-01T15:25:23.664Z,10.00
2023-03-01T15:27:52.237Z,9.90
2023-03-01T15:30:26.938Z,9.70
2023-03-01T15:33:20.293Z,11.53
2023-03-01T15:35:55.045Z,10.93
2023-03-01T15:38:26.147Z,9.60
2023-03-01T15:40:52.979Z,7.50
2023-03-01T15:43:38.731Z,7.50
2023-03-01T15:46:05.715Z,8.60
2023-03-01T15:48:32.560Z,10.97
2023-03-01T15:51:00.430Z,8.53
2023-03-01T15:53:27.797Z,10.60
2023-03-01T15:55:54.951Z,7.77
2023-03-01T15:58:25.492Z,9.13
2023-03-01T16:01:02.089Z,10.13
2023-03-01T16:03:29.380Z,7.80
2023-03-01T16:05:56.185Z,11.43
2023-03-01T16:08:22.848Z,10.30
2023-03-01T16:10:51.066Z,10.50
2023-03-01T16:13:18.430Z,9.67
2023-03-01T16:15:45.140Z,9.70
2023-03-01T16:18:12.901Z,9.33
2023-03-01T16:20:40.272Z,11.50
2023-03-01T16:23:08.628Z,10.90
2023-03-01T16:25:36.464Z,12.50
2023-03-01T16:28:06.089Z,13.10
2023-03-01T16:30:32.882Z,13.30
2023-03-01T16:32:59.865Z,10.90
2023-03-01T16:35:26.705Z,13.67
2023-03-01T16:37:54.955Z,11.50
2023-03-01T16:40:21.956Z,28.93
2023-03-01T16:42:49.612Z,27.73
2023-03-01T16:45:24.382Z,12.70
2023-03-01T16:47:55.091Z,10.33
2023-03-01T16:50:22.611Z,11.27
2023-03-01T16:52:49.456Z,13.73
2023-03-01T16:55:16.259Z,12.47
2023-03-01T16:57:42.945Z,9.90
2023-03-01T17:00:14.225Z,12.53
2023-03-01T17:02:42.268Z,13.10
2023-03-01T17:05:11.030Z,12.57
2023-03-01T17:07:38.133Z,10.33
2023-03-01T17:10:05.941Z,12.63
2023-03-01T17:12:33.689Z,13.03
2023-03-01T17:15:00.568Z,11.10
2023-03-01T17:17:27.860Z,11.10
2023-03-01T17:19:54.589Z,12.13
2023-03-01T17:22:21.203Z,13.07
2023-03-01T17:24:47.874Z,14.03
2023-03-01T17:27:16.079Z,16.43
2023-03-01T17:29:42.756Z,15.27
2023-03-01T17:32:10.561Z,13.23
2023-03-01T17:34:38.180Z,16.97
2023-03-01T17:37:04.956Z,11.77
2023-03-01T17:39:36.463Z,12.27
2023-03-01T17:42:06.706Z,10.67
2023-03-01T17:44:34.786Z,12.63
2023-03-01T17:47:05.264Z,13.20
2023-03-01T17:49:32.843Z,20.03
2023-03-01T17:52:00.025Z,24.67
2023-03-01T17:54:26.826Z,30.20
2023-03-01T17:56:53.657Z,103.50
2023-03-01T17:59:20.377Z,26.70
2023-03-01T18:01:47.502Z,15.37
2023-03-01T18:04:14.468Z,12.53
2023-03-01T18:06:41.205Z,12.03
2023-03-01T18:09:08.127Z,14.60
2023-03-01T18:11:35.877Z,15.37
2023-03-01T18:14:03.132Z,12.63
2023-03-01T18:16:32.252Z,14.07
2023-03-01T18:18:59.923Z,14.73
2023-03-01T18:21:27.018Z,13.43
2023-03-01T18:23:53.923Z,15.97
2023-03-01T18:26:22.288Z,16.20
2023-03-01T18:28:50.974Z,12.30
2023-03-01T18:31:18.725Z,12.17
2023-03-01T18:33:46.432Z,13.80
2023-03-01T18:36:17.684Z,15.87
2023-03-01T18:38:44.370Z,12.87
2023-03-01T18:41:12.302Z,14.77
2023-03-01T18:43:39.041Z,14.70
2023-03-01T18:46:05.952Z,15.60
2023-03-01T18:48:32.816Z,14.33
2023-03-01T18:51:07.150Z,46.00
2023-03-01T18:53:33.921Z,22.90
2023-03-01T18:56:02.275Z,17.60
2023-03-01T18:58:29.391Z,13.23
2023-03-01T19:00:55.995Z,14.87
2023-03-01T19:03:23.152Z,14.23
2023-03-01T19:05:50.017Z,23.57
2023-03-01T19:08:16.795Z,19.63
2023-03-01T19:10:43.456Z,15.10
2023-03-01T19:13:11.054Z,9.43
2023-03-01T19:15:37.911Z,12.93
2023-03-01T19:18:05.595Z,10.73
2023-03-01T19:20:32.225Z,10.10
2023-03-01T19:22:58.906Z,7.50
2023-03-01T19:25:25.865Z,8.80
2023-03-01T19:27:52.548Z,12.13
2023-03-01T19:30:19.266Z,11.77
2023-03-01T19:32:46.328Z,14.60
2023-03-01T19:35:12.975Z,11.70
2023-03-01T19:37:39.719Z,10.07
2023-03-01T19:40:06.715Z,12.10
2023-03-01T19:42:34.034Z,11.93
2023-03-01T19:45:01.061Z,9.30
2023-03-01T19:47:27.849Z,10.70
2023-03-01T19:49:54.504Z,10.97
2023-03-01T19:52:21.184Z,13.13
2023-03-01T19:54:48.039Z,9.67
2023-03-01T19:57:15.188Z,15.13
2023-03-01T19:59:41.852Z,11.17
2023-03-01T20:02:09.547Z,9.90
2023-03-01T20:04:36.613Z,13.63
2023-03-01T20:07:03.289Z,11.70
2023-03-01T20:09:30.042Z,12.50
2023-03-01T20:11:56.727Z,12.97
2023-03-01T20:14:24.248Z,14.10
2023-03-01T20:16:51.545Z,14.27
2023-03-01T20:19:18.183Z,13.43
2023-03-01T20:21:44.828Z,12.10
2023-03-01T20:24:11.458Z,12.67
2023-03-01T20:26:38.343Z,8.13
2023-03-01T20:29:08.843Z,14.53
2023-03-01T20:31:36.192Z,11.80
2023-03-01T20:34:04.221Z,9.87
2023-03-01T20:36:31.418Z,12.80
2023-03-01T20:38:58.163Z,23.37
2023-03-01T20:41:28.717Z,11.27
2023-03-01T20:43:56.902Z,10.90
2023-03-01T20:46:25.959Z,10.20
2023-03-01T20:48:53.867Z,10.07
2023-03-01T20:51:20.497Z,12.07
2023-03-01T20:53:47.250Z,10.73
2023-03-01T20:56:15.324Z,10.23
2023-03-01T20:58:42.321Z,9.63
2023-03-01T21:01:10.116Z,10.30
2023-03-01T21:03:36.779Z,12.10
2023-03-01T21:06:06.270Z,10.20
2023-03-01T21:08:33.966Z,12.33
2023-03-01T21:11:00.938Z,12.03
2023-03-01T21:13:28.322Z,11.97
2023-03-01T21:15:56.237Z,11.90
2023-03-01T21:18:23.229Z,9.10
2023-03-01T21:20:49.874Z,11.07
2023-03-01T21:23:19.329Z,10.50
2023-03-01T21:25:46.007Z,13.93
2023-03-01T21:28:12.645Z,13.73
2023-03-01T21:30:39.434Z,12.23
2023-03-01T21:33:06.106Z,13.10
2023-03-01T21:35:32.747Z,11.20
2023-03-01T21:37:59.436Z,13.77
2023-03-01T21:40:26.262Z,12.97
2023-03-01T21:42:53.010Z,12.07
2023-03-01T21:45:19.637Z,11.60
2023-03-01T21:47:46.271Z,11.30
2023-03-01T21:50:13.167Z,13.63
2023-03-01T21:52:40.023Z,12.00
2023-03-01T21:55:07.306Z,14.60
2023-03-01T21:57:34.019Z,12.67
2023-03-01T22:00:00.733Z,12.50
2023-03-01T22:02:27.418Z,12.57
2023-03-01T22:04:57.605Z,12.70
2023-03-01T22:07:24.366Z,13.60
2023-03-01T22:09:51.379Z,14.73
2023-03-01T22:12:18.056Z,14.03
2023-03-01T22:14:44.718Z,13.53
2023-03-01T22:17:11.463Z,15.00
2023-03-01T22:19:38.216Z,13.07
2023-03-01T22:22:04.948Z,18.40
2023-03-01T22:24:31.615Z,14.77
2023-03-01T22:26:58.292Z,12.80
2023-03-01T22:29:26.937Z,15.90
2023-03-01T22:31:54.771Z,16.10
2023-03-01T22:34:21.917Z,14.33
2023-03-01T22:36:49.805Z,15.87
2023-03-01T22:39:17.817Z,13.67
2023-03-01T22:41:46.031Z,15.40
2023-03-01T22:44:16.918Z,16.77
2023-03-01T22:46:44.284Z,12.87
2023-03-01T22:49:10.958Z,15.20
2023-03-01T22:51:39.570Z,14.20
2023-03-01T22:54:07.006Z,12.67
2023-03-01T22:56:34.635Z,12.87
2023-03-01T22:59:02.829Z,14.33
2023-03-01T23:01:30.560Z,14.00
2023-03-01T23:03:57.726Z,12.67
2023-03-01T23:06:24.605Z,13.60
2023-03-01T23:08:52.573Z,14.83
2023-03-01T23:11:20.030Z,15.33
2023-03-01T23:13:46.922Z,14.27
2023-03-01T23:16:13.943Z,13.80
2023-03-01T23:18:40.960Z,15.63
2023-03-01T23:21:08.564Z,15.10
2023-03-01T23:23:35.311Z,16.13
2023-03-01T23:26:02.182Z,17.37
2023-03-01T23:28:30.054Z,19.00
2023-03-01T23:30:58.181Z,14.20
2023-03-01T23:33:25.557Z,14.63
2023-03-01T23:35:52.503Z,14.03
2023-03-01T23:38:20.690Z,16.10
2023-03-01T23:40:47.546Z,14.13
2023-03-01T23:43:14.441Z,13.07
2023-03-01T23:45:43.142Z,17.00
2023-03-01T23:48:13.515Z,14.80
2023-03-01T23:50:42.063Z,21.00
2023-03-01T23:53:19.322Z,17.13
2023-03-01T23:55:47.497Z,14.70
2023-03-01T23:58:14.141Z,17.50
